createdAt,value
2023-04-14T00:00:41.780Z,49.21
2023-04-14T00:01:41.715Z,50.45
2023-04-14T00:02:41.847Z,48.88
2023-04-14T00:03:41.865Z,56.61
2023-04-14T00:04:41.905Z,41.06
2023-04-14T00:05:41.712Z,43.24
2023-04-14T00:06:41.667Z,55.47
2023-04-14T00:07:41.713Z,46.25
2023-04-14T00:08:41.709Z,46.84
2023-04-14T00:09:41.626Z,51.56
2023-04-14T00:10:41.644Z,47.03
2023-04-14T00:11:41.619Z,47.62
2023-04-14T00:12:41.626Z,42.90
2023-04-14T00:13:41.582Z,51.96
2023-04-14T00:14:41.592Z,48.43
2023-04-14T00:15:41.603Z,46.15
2023-04-14T00:16:41.607Z,55.00
2023-04-14T00:17:41.602Z,41.40
2023-04-14T00:18:41.558Z,50.77
2023-04-14T00:19:41.548Z,41.81
2023-04-14T00:20:41.608Z,48.42
2023-04-14T00:22:14.277Z,47.10
2023-04-14T00:23:13.808Z,43.01
2023-04-14T00:24:14.327Z,43.72
2023-04-14T00:24:41.506Z,43.34
2023-04-14T00:25:41.529Z,43.11
2023-04-14T00:27:14.307Z,42.68
2023-04-14T00:27:41.516Z,54.86
2023-04-14T00:29:13.507Z,54.50
2023-04-14T00:30:07.877Z,41.88
2023-04-14T00:30:41.573Z,41.40
2023-04-14T00:32:13.911Z,49.00
2023-04-14T00:32:41.485Z,40.84
2023-04-14T00:33:41.432Z,50.18
2023-04-14T00:34:41.446Z,55.07
2023-04-14T00:35:41.410Z,42.41
2023-04-14T00:36:41.413Z,60.11
2023-04-14T00:37:41.458Z,41.39
2023-04-14T00:38:41.442Z,54.78
2023-04-14T00:39:41.411Z,47.22
2023-04-14T00:40:41.385Z,54.19
2023-04-14T00:41:41.377Z,54.41
2023-04-14T00:42:41.374Z,54.81
2023-04-14T00:43:41.355Z,51.62
2023-04-14T00:44:41.373Z,55.67
2023-04-14T00:45:41.354Z,44.68
2023-04-14T00:46:41.392Z,49.37
2023-04-14T00:47:41.342Z,53.88
2023-04-14T00:48:41.321Z,51.58
2023-04-14T00:49:41.338Z,42.38
2023-04-14T00:50:41.300Z,48.36
2023-04-14T00:51:41.303Z,42.48
2023-04-14T00:52:41.295Z,41.96
2023-04-14T00:53:41.297Z,47.88
2023-04-14T00:54:41.311Z,41.67
2023-04-14T00:55:41.287Z,47.66
2023-04-14T00:56:41.266Z,41.78
2023-04-14T00:57:41.268Z,51.01
2023-04-14T00:58:41.245Z,54.39
2023-04-14T00:59:41.245Z,50.42
2023-04-14T01:00:41.244Z,48.39
2023-04-14T01:01:41.283Z,42.77
2023-04-14T01:02:41.578Z,45.68
2023-04-14T01:03:41.508Z,45.92
2023-04-14T01:04:53.052Z,41.63
2023-04-14T01:05:43.187Z,49.57
2023-04-14T01:06:41.240Z,52.58
2023-04-14T01:07:41.173Z,49.36
2023-04-14T01:08:41.153Z,41.70
2023-04-14T01:09:41.156Z,41.75
2023-04-14T01:10:41.162Z,43.02
2023-04-14T01:11:41.900Z,61.85
2023-04-14T01:12:41.139Z,53.75
2023-04-14T01:13:41.118Z,41.34
2023-04-14T01:14:41.122Z,48.33
2023-04-14T01:15:41.192Z,49.52
2023-04-14T01:16:41.140Z,42.36
2023-04-14T01:17:41.210Z,61.72
2023-04-14T01:18:41.118Z,42.76
2023-04-14T01:19:41.112Z,41.31
2023-04-14T01:20:41.836Z,50.56
2023-04-14T01:21:41.071Z,41.05
2023-04-14T01:22:41.075Z,49.68
2023-04-14T01:23:41.112Z,49.23
2023-04-14T01:24:41.040Z,50.90
2023-04-14T01:25:41.021Z,42.19
2023-04-14T01:26:41.111Z,41.67
2023-04-14T01:27:41.051Z,41.11
2023-04-14T01:28:41.036Z,48.12
2023-04-14T01:29:41.037Z,41.07
2023-04-14T01:30:41.050Z,49.07
2023-04-14T01:31:41.055Z,44.75
2023-04-14T01:32:41.009Z,48.97
2023-04-14T01:33:41.081Z,43.21
2023-04-14T01:34:41.098Z,47.24
2023-04-14T01:35:40.972Z,53.31
2023-04-14T01:36:40.970Z,42.20
2023-04-14T01:37:40.946Z,41.51
2023-04-14T01:38:41.947Z,41.26
2023-04-14T01:39:40.938Z,41.60
2023-04-14T01:40:40.922Z,56.61
2023-04-14T01:41:40.907Z,41.79
2023-04-14T01:42:40.905Z,48.34
2023-04-14T01:43:40.911Z,50.31
2023-04-14T01:44:40.890Z,53.61
2023-04-14T01:45:40.924Z,53.45
2023-04-14T01:46:40.905Z,49.09
2023-04-14T01:47:40.919Z,41.13
2023-04-14T01:48:40.844Z,41.06
2023-04-14T01:49:40.903Z,45.14
2023-04-14T01:50:40.864Z,44.26
2023-04-14T01:51:40.835Z,46.69
2023-04-14T01:52:40.837Z,41.22
2023-04-14T01:53:40.848Z,41.26
2023-04-14T01:54:40.815Z,50.29
2023-04-14T01:55:40.824Z,43.75
2023-04-14T01:56:40.796Z,44.99
2023-04-14T01:57:40.800Z,46.23
2023-04-14T01:58:40.817Z,43.29
2023-04-14T01:59:40.822Z,42.83
2023-04-14T02:00:40.831Z,46.02
2023-04-14T02:01:40.783Z,41.40
2023-04-14T02:02:40.892Z,41.06
2023-04-14T02:03:40.852Z,50.57
2023-04-14T02:04:40.744Z,41.35
2023-04-14T02:05:40.753Z,48.51
2023-04-14T02:06:41.704Z,50.36
2023-04-14T02:07:40.718Z,47.74
2023-04-14T02:08:40.713Z,44.27
2023-04-14T02:09:40.707Z,41.69
2023-04-14T02:10:40.737Z,42.22
2023-04-14T02:11:40.684Z,52.54
2023-04-14T02:12:40.706Z,43.31
2023-04-14T02:13:40.677Z,46.67
2023-04-14T02:14:40.677Z,49.24
2023-04-14T02:15:40.654Z,47.32
2023-04-14T02:16:40.775Z,41.13
2023-04-14T02:17:40.721Z,41.44
2023-04-14T02:18:40.656Z,43.65
2023-04-14T02:19:40.620Z,53.42
2023-04-14T02:20:40.645Z,41.71
2023-04-14T02:21:40.661Z,59.63
2023-04-14T02:22:40.597Z,45.81
2023-04-14T02:23:40.586Z,41.06
2023-04-14T02:24:40.673Z,50.09
2023-04-14T02:25:40.566Z,41.03
2023-04-14T02:26:40.574Z,54.27
2023-04-14T02:27:40.574Z,54.90
2023-04-14T02:28:40.547Z,41.97
2023-04-14T02:29:40.588Z,41.40
2023-04-14T02:30:40.565Z,41.26
2023-04-14T02:31:40.534Z,47.01
2023-04-14T02:32:40.574Z,42.45
2023-04-14T02:33:40.512Z,41.45
2023-04-14T02:34:41.520Z,51.92
2023-04-14T02:35:40.544Z,56.57
2023-04-14T02:36:40.538Z,50.39
2023-04-14T02:37:40.494Z,46.89
2023-04-14T02:38:40.563Z,57.68
2023-04-14T02:39:40.487Z,43.39
2023-04-14T02:40:40.485Z,50.20
2023-04-14T02:41:40.454Z,50.70
2023-04-14T02:42:40.482Z,53.69
2023-04-14T02:43:40.433Z,44.81
2023-04-14T02:44:40.442Z,43.75
2023-04-14T02:45:40.423Z,48.21
2023-04-14T02:46:40.518Z,50.26
2023-04-14T02:47:40.545Z,55.57
2023-04-14T02:48:40.414Z,48.08
2023-04-14T02:49:40.403Z,49.79
2023-04-14T02:50:40.403Z,50.19
2023-04-14T02:51:40.372Z,48.95
2023-04-14T02:52:40.381Z,40.80
2023-04-14T02:53:40.375Z,42.22
2023-04-14T02:54:40.361Z,42.10
2023-04-14T02:55:40.373Z,51.26
2023-04-14T02:56:41.386Z,44.61
2023-04-14T02:57:40.326Z,48.19
2023-04-14T02:58:40.377Z,57.44
2023-04-14T02:59:40.306Z,47.94
2023-04-14T03:00:40.332Z,55.92
2023-04-14T03:01:40.336Z,49.51
2023-04-14T03:02:40.413Z,55.35
2023-04-14T03:03:40.452Z,49.23
2023-04-14T03:04:40.300Z,59.88
2023-04-14T03:05:40.293Z,48.33
2023-04-14T03:06:40.290Z,51.42
2023-04-14T03:07:40.287Z,45.63
2023-04-14T03:08:40.259Z,48.08
2023-04-14T03:09:40.266Z,54.37
2023-04-14T03:10:40.245Z,58.67
2023-04-14T03:11:40.233Z,55.16
2023-04-14T03:12:40.278Z,51.23
2023-04-14T03:13:40.226Z,53.49
2023-04-14T03:14:40.207Z,50.53
2023-04-14T03:15:40.250Z,69.86
2023-04-14T03:16:40.214Z,55.76
2023-04-14T03:17:40.256Z,52.36
2023-04-14T03:18:40.175Z,52.02
2023-04-14T03:19:41.040Z,57.55
2023-04-14T03:20:40.191Z,59.43
2023-04-14T03:21:40.171Z,52.36
2023-04-14T03:22:40.139Z,61.63
2023-04-14T03:23:40.152Z,55.31
2023-04-14T03:24:40.135Z,55.99
2023-04-14T03:25:40.115Z,60.75
2023-04-14T03:26:40.132Z,61.22
2023-04-14T03:27:40.115Z,61.38
2023-04-14T03:28:40.151Z,60.07
2023-04-14T03:29:40.087Z,59.28
2023-04-14T03:30:40.119Z,64.22
2023-04-14T03:31:40.172Z,62.15
2023-04-14T03:32:40.127Z,53.78
2023-04-14T03:33:40.073Z,59.16
2023-04-14T03:34:40.048Z,69.08
2023-04-14T03:35:40.065Z,59.76
2023-04-14T03:36:40.089Z,63.66
2023-04-14T03:37:40.080Z,69.99
2023-04-14T03:38:40.929Z,64.90
2023-04-14T03:39:40.010Z,66.26
2023-04-14T03:40:40.017Z,65.00
2023-04-14T03:41:40.015Z,62.23
2023-04-14T03:42:40.060Z,67.74
2023-04-14T03:43:39.986Z,64.10
2023-04-14T03:44:39.978Z,63.62
2023-04-14T03:45:39.961Z,64.14
2023-04-14T03:46:39.994Z,57.51
2023-04-14T04:03:54.602Z,61.57
2023-04-14T04:04:54.496Z,59.68
2023-04-14T04:05:54.441Z,59.33
2023-04-14T04:06:55.514Z,67.13
2023-04-14T04:07:55.567Z,68.09
2023-04-14T04:08:55.500Z,64.20
2023-04-14T04:09:55.549Z,66.11
2023-04-14T04:10:55.495Z,62.57
2023-04-14T04:11:55.492Z,58.72
2023-04-14T04:12:55.488Z,66.93
2023-04-14T04:13:55.450Z,53.33
2023-04-14T04:14:55.458Z,64.65
2023-04-14T04:15:55.467Z,61.51
2023-04-14T04:16:55.503Z,61.14
2023-04-14T04:17:55.514Z,65.94
2023-04-14T04:18:55.417Z,67.47
2023-04-14T04:19:55.411Z,61.75
2023-04-14T04:20:55.417Z,62.61
2023-04-14T04:21:55.395Z,65.65
2023-04-14T04:22:55.379Z,67.78
2023-04-14T04:23:55.389Z,64.97
2023-04-14T04:24:55.379Z,62.87
2023-04-14T04:25:55.389Z,66.07
2023-04-14T04:26:55.404Z,64.65
2023-04-14T04:27:56.356Z,69.29
2023-04-14T04:28:55.336Z,62.71
2023-04-14T04:29:55.344Z,62.03
2023-04-14T04:30:55.368Z,60.16
2023-04-14T04:31:55.514Z,73.25
2023-04-14T04:32:55.349Z,72.74
2023-04-14T04:33:55.295Z,54.07
2023-04-14T04:34:55.284Z,65.59
2023-04-14T04:35:55.303Z,66.77
2023-04-14T04:36:55.320Z,68.04
2023-04-14T04:37:55.264Z,68.12
2023-04-14T04:38:55.252Z,66.15
2023-04-14T04:39:55.258Z,68.12
2023-04-14T04:40:55.281Z,59.28
2023-04-14T04:41:55.249Z,68.21
2023-04-14T04:42:55.236Z,69.06
2023-04-14T04:43:55.209Z,68.77
2023-04-14T04:44:55.212Z,70.32
2023-04-14T04:45:55.237Z,71.26
2023-04-14T04:46:55.216Z,68.94
2023-04-14T04:47:55.254Z,65.40
2023-04-14T04:48:55.200Z,69.46
2023-04-14T04:49:55.220Z,66.75
2023-04-14T04:50:55.189Z,67.35
2023-04-14T04:51:55.150Z,69.48
2023-04-14T04:52:55.148Z,60.96
2023-04-14T04:53:55.153Z,66.91
2023-04-14T04:54:55.155Z,70.31
2023-04-14T04:55:55.139Z,69.17
2023-04-14T04:56:55.123Z,60.78
2023-04-14T04:57:55.134Z,62.92
2023-04-14T04:58:55.092Z,66.82
2023-04-14T04:59:55.108Z,69.45
2023-04-14T05:00:55.088Z,65.34
2023-04-14T05:01:55.190Z,58.65
2023-04-14T05:02:55.161Z,72.52
2023-04-14T05:03:55.083Z,66.66
2023-04-14T05:04:55.096Z,69.01
2023-04-14T05:05:55.039Z,66.36
2023-04-14T05:06:55.048Z,71.19
2023-04-14T05:07:55.054Z,56.27
2023-04-14T05:08:55.028Z,72.86
2023-04-14T05:09:56.025Z,61.04
2023-04-14T05:10:54.994Z,70.34
2023-04-14T05:11:55.003Z,68.70
2023-04-14T05:12:54.980Z,65.10
2023-04-14T05:13:54.972Z,64.73
2023-04-14T05:14:55.017Z,68.87
2023-04-14T05:15:54.954Z,70.49
2023-04-14T05:16:54.972Z,66.97
2023-04-14T05:17:55.001Z,68.88
2023-04-14T05:18:54.947Z,69.62
2023-04-14T05:19:54.966Z,69.68
2023-04-14T05:20:54.922Z,66.08
2023-04-14T05:21:54.970Z,67.27
2023-04-14T05:22:54.902Z,70.28
2023-04-14T05:23:54.920Z,68.86
2023-04-14T05:24:54.910Z,59.35
2023-04-14T05:25:54.899Z,70.71
2023-04-14T05:27:12.527Z,67.78
2023-04-14T05:27:57.620Z,67.77
2023-04-14T05:28:54.862Z,70.00
2023-04-14T05:29:54.896Z,67.42
2023-04-14T05:30:54.892Z,69.04
2023-04-14T05:31:54.847Z,68.26
2023-04-14T05:32:54.930Z,59.58
2023-04-14T05:33:54.853Z,70.62
2023-04-14T05:34:54.824Z,69.76
2023-04-14T05:35:54.824Z,69.81
2023-04-14T05:36:54.799Z,63.15
2023-04-14T05:38:26.725Z,64.70
2023-04-14T05:38:54.791Z,70.53
2023-04-14T05:39:54.786Z,69.36
2023-04-14T05:40:54.784Z,73.43
2023-04-14T05:41:54.778Z,69.92
2023-04-14T05:42:56.557Z,67.05
2023-04-14T05:43:55.762Z,66.71
2023-04-14T05:44:54.734Z,70.72
2023-04-14T05:45:54.759Z,63.06
2023-04-14T05:46:54.895Z,72.15
2023-04-14T05:47:54.742Z,67.66
2023-04-14T05:48:54.718Z,64.72
2023-04-14T05:49:54.704Z,68.79
2023-04-14T05:50:54.682Z,60.76
2023-04-14T05:51:54.702Z,68.30
2023-04-14T05:52:54.694Z,63.56
2023-04-14T05:53:54.693Z,66.01
2023-04-14T05:54:54.658Z,68.75
2023-04-14T05:55:54.674Z,66.70
2023-04-14T05:56:54.695Z,72.19
2023-04-14T05:57:54.645Z,61.34
2023-04-14T05:58:54.642Z,71.11
2023-04-14T05:59:56.447Z,67.47
2023-04-14T06:00:54.682Z,57.67
2023-04-14T06:01:54.732Z,64.97
2023-04-14T06:02:54.875Z,70.96
2023-04-14T06:03:54.945Z,64.12
2023-04-14T06:04:54.641Z,58.33
2023-04-14T06:05:54.603Z,58.28
2023-04-14T06:06:54.563Z,61.54
2023-04-14T06:07:54.548Z,67.55
2023-04-14T06:08:54.561Z,54.68
2023-04-14T06:09:54.565Z,67.68
2023-04-14T06:10:54.555Z,67.97
2023-04-14T06:11:54.529Z,55.47
2023-04-14T06:12:54.529Z,63.71
2023-04-14T06:13:54.546Z,70.74
2023-04-14T06:14:55.492Z,63.44
2023-04-14T06:15:54.501Z,65.11
2023-04-14T06:16:54.572Z,63.30
2023-04-14T06:17:55.169Z,68.93
2023-04-14T06:18:54.472Z,71.03
2023-04-14T06:19:54.490Z,66.74
2023-04-14T06:20:54.472Z,55.47
2023-04-14T06:21:55.078Z,63.78
2023-04-14T06:22:54.449Z,65.94
2023-04-14T06:23:54.471Z,72.60
2023-04-14T06:24:54.452Z,61.49
2023-04-14T06:25:54.531Z,60.68
2023-04-14T06:26:54.428Z,59.58
2023-04-14T06:27:54.397Z,69.08
2023-04-14T06:28:54.390Z,69.17
2023-04-14T06:29:54.384Z,66.51
2023-04-14T06:30:54.388Z,66.30
2023-04-14T06:31:54.452Z,65.91
2023-04-14T06:32:54.565Z,67.41
2023-04-14T06:33:54.361Z,56.67
2023-04-14T06:34:54.345Z,68.63
2023-04-14T06:35:54.335Z,64.94
2023-04-14T06:36:54.363Z,70.26
2023-04-14T06:37:54.323Z,70.20
2023-04-14T06:38:54.348Z,62.58
2023-04-14T06:39:54.318Z,63.57
2023-04-14T06:40:54.347Z,65.96
2023-04-14T06:41:54.317Z,63.73
2023-04-14T06:42:54.289Z,68.34
2023-04-14T06:43:54.280Z,69.42
2023-04-14T06:44:54.281Z,58.69
2023-04-14T06:45:55.211Z,66.69
2023-04-14T06:46:55.830Z,61.97
2023-04-14T06:47:55.325Z,72.37
2023-04-14T06:48:54.275Z,66.14
2023-04-14T06:49:54.244Z,65.18
2023-04-14T06:50:54.234Z,60.25
2023-04-14T06:51:54.236Z,63.63
2023-04-14T06:52:54.209Z,69.95
2023-04-14T06:53:55.187Z,62.02
2023-04-14T06:54:54.183Z,66.16
2023-04-14T06:55:54.210Z,65.16
2023-04-14T06:56:54.186Z,69.45
2023-04-14T06:57:54.180Z,54.65
2023-04-14T06:58:54.208Z,53.17
2023-04-14T06:59:54.188Z,61.95
2023-04-14T07:00:54.184Z,65.65
2023-04-14T07:01:54.236Z,70.42
2023-04-14T07:02:54.277Z,65.79
2023-04-14T07:03:54.119Z,70.38
2023-04-14T07:04:54.113Z,57.97
2023-04-14T07:05:54.156Z,61.29
2023-04-14T07:06:54.084Z,67.56
2023-04-14T07:07:54.166Z,66.90
2023-04-14T07:08:54.095Z,69.40
2023-04-14T07:09:55.128Z,67.14
2023-04-14T07:10:54.052Z,61.74
2023-04-14T07:11:54.054Z,69.62
2023-04-14T07:12:54.075Z,69.03
2023-04-14T07:13:54.056Z,70.44
2023-04-14T07:14:54.061Z,66.49
2023-04-14T07:15:54.093Z,69.17
2023-04-14T07:16:54.015Z,71.08
2023-04-14T07:17:54.115Z,64.10
2023-04-14T07:18:54.000Z,74.16
2023-04-14T07:19:54.012Z,70.02
2023-04-14T07:20:54.005Z,65.22
2023-04-14T07:21:54.033Z,64.30
2023-04-14T07:22:54.005Z,65.31
2023-04-14T07:23:54.035Z,64.72
2023-04-14T07:24:54.015Z,68.83
2023-04-14T07:25:53.959Z,71.89
2023-04-14T07:26:53.994Z,68.83
2023-04-14T07:28:03.253Z,66.31
2023-04-14T07:28:55.933Z,67.71
2023-04-14T07:29:53.942Z,68.99
2023-04-14T07:30:53.949Z,65.98
2023-04-14T07:31:54.028Z,66.81
2023-04-14T07:32:53.910Z,60.49
2023-04-14T07:33:53.906Z,69.79
2023-04-14T07:34:53.886Z,71.52
2023-04-14T07:36:02.739Z,65.63
2023-04-14T07:36:55.877Z,65.82
2023-04-14T07:37:53.857Z,69.11
2023-04-14T07:38:53.869Z,64.46
2023-04-14T07:39:53.857Z,70.09
2023-04-14T07:40:54.001Z,71.18
2023-04-14T07:41:53.845Z,70.68
2023-04-14T07:42:53.839Z,62.52
2023-04-14T07:43:53.799Z,66.41
2023-04-14T07:44:53.816Z,63.53
2023-04-14T07:45:53.855Z,71.15
2023-04-14T07:46:53.805Z,71.71
2023-04-14T07:47:57.589Z,65.72
2023-04-14T07:48:53.769Z,64.53
2023-04-14T07:49:53.771Z,68.27
2023-04-14T07:50:53.796Z,62.77
2023-04-14T07:51:53.748Z,70.91
2023-04-14T07:52:53.805Z,69.21
2023-04-14T07:53:53.740Z,71.64
2023-04-14T07:54:53.715Z,66.28
2023-04-14T07:55:54.718Z,67.79
2023-04-14T07:56:53.732Z,68.20
2023-04-14T07:57:53.700Z,68.64
2023-04-14T07:58:53.701Z,67.94
2023-04-14T07:59:53.687Z,59.90
2023-04-14T08:00:53.676Z,71.31
2023-04-14T08:01:53.775Z,66.39
2023-04-14T08:02:53.761Z,68.08
2023-04-14T08:03:53.822Z,65.61
2023-04-14T08:04:53.730Z,61.15
2023-04-14T08:05:53.649Z,66.11
2023-04-14T08:06:53.835Z,69.51
2023-04-14T08:07:53.653Z,63.68
2023-04-14T08:08:53.660Z,69.01
2023-04-14T08:09:53.642Z,70.39
2023-04-14T08:10:53.615Z,69.09
2023-04-14T08:11:53.643Z,63.82
2023-04-14T08:12:53.572Z,64.92
2023-04-14T08:13:53.615Z,68.48
2023-04-14T08:14:53.585Z,60.98
2023-04-14T08:15:53.614Z,70.25
2023-04-14T08:16:54.172Z,66.82
2023-04-14T08:17:53.593Z,65.50
2023-04-14T08:18:55.031Z,72.52
2023-04-14T08:19:53.543Z,70.49
2023-04-14T08:20:53.528Z,64.85
2023-04-14T08:21:53.569Z,66.85
2023-04-14T08:22:53.519Z,67.36
2023-04-14T08:23:53.537Z,66.32
2023-04-14T08:24:53.564Z,67.72
2023-04-14T08:25:53.486Z,68.73
2023-04-14T08:26:53.514Z,67.47
2023-04-14T08:27:53.482Z,62.53
2023-04-14T08:28:53.495Z,68.60
2023-04-14T08:29:53.466Z,66.53
2023-04-14T08:30:53.478Z,68.27
2023-04-14T08:31:53.504Z,64.94
2023-04-14T08:32:54.587Z,67.09
2023-04-14T08:33:53.472Z,63.37
2023-04-14T08:35:35.738Z,68.84
2023-04-14T08:35:57.913Z,66.15
2023-04-14T08:36:54.403Z,66.34
2023-04-14T08:37:53.416Z,63.71
2023-04-14T08:38:53.380Z,69.02
2023-04-14T08:39:53.382Z,67.23
2023-04-14T08:40:53.403Z,67.09
2023-04-14T08:41:53.408Z,71.96
2023-04-14T08:42:53.359Z,69.38
2023-04-14T08:43:53.383Z,68.78
2023-04-14T08:44:53.352Z,71.73
2023-04-14T08:45:53.492Z,68.96
2023-04-14T08:46:53.416Z,68.24
2023-04-14T08:47:53.411Z,68.91
2023-04-14T08:48:53.351Z,64.92
2023-04-14T08:49:53.343Z,71.06
2023-04-14T08:50:53.290Z,68.35
2023-04-14T08:51:53.304Z,66.78
2023-04-14T08:52:53.281Z,66.26
2023-04-14T08:53:53.309Z,63.60
2023-04-14T08:54:53.290Z,69.29
2023-04-14T08:55:53.313Z,63.83
2023-04-14T08:56:53.295Z,71.49
2023-04-14T08:57:53.257Z,69.24
2023-04-14T08:58:53.247Z,71.02
2023-04-14T08:59:53.228Z,70.03
2023-04-14T09:00:53.245Z,67.54
2023-04-14T09:01:53.377Z,67.87
2023-04-14T09:02:53.310Z,64.09
2023-04-14T09:03:53.401Z,64.39
2023-04-14T09:04:55.113Z,60.06
2023-04-14T09:05:53.194Z,70.20
2023-04-14T09:06:53.180Z,68.87
2023-04-14T09:07:53.180Z,66.20
2023-04-14T09:08:53.248Z,66.63
2023-04-14T09:09:53.163Z,68.75
2023-04-14T09:10:53.149Z,65.89
2023-04-14T09:11:53.140Z,69.82
2023-04-14T09:12:53.310Z,68.92
2023-04-14T09:13:53.131Z,67.08
2023-04-14T09:14:53.120Z,68.48
2023-04-14T09:15:53.116Z,70.50
2023-04-14T09:16:53.130Z,67.56
2023-04-14T09:17:53.153Z,69.18
2023-04-14T09:18:53.117Z,64.05
2023-04-14T09:20:36.160Z,69.43
2023-04-14T09:21:50.726Z,70.19
2023-04-14T09:21:54.998Z,62.83
2023-04-14T09:22:54.092Z,60.33
2023-04-14T09:23:53.150Z,65.04
2023-04-14T09:24:53.100Z,67.73
2023-04-14T09:25:53.020Z,65.94
2023-04-14T09:26:53.020Z,64.60
2023-04-14T09:27:53.020Z,70.27
2023-04-14T09:28:52.999Z,72.38
2023-04-14T09:30:24.938Z,65.59
2023-04-14T09:30:52.987Z,66.24
2023-04-14T09:31:53.040Z,64.89
2023-04-14T09:32:53.066Z,65.83
2023-04-14T09:33:53.030Z,67.12
2023-04-14T09:34:53.988Z,68.08
2023-04-14T09:35:52.935Z,72.66
2023-04-14T09:36:52.935Z,65.67
2023-04-14T09:37:52.931Z,65.16
2023-04-14T09:38:52.948Z,63.62
2023-04-14T09:39:52.931Z,68.43
2023-04-14T09:40:54.302Z,64.43
2023-04-14T09:41:52.891Z,68.05
2023-04-14T09:42:52.883Z,62.32
2023-04-14T09:43:52.873Z,65.41
2023-04-14T09:44:52.896Z,64.94
2023-04-14T09:45:52.933Z,69.07
2023-04-14T09:46:53.841Z,62.61
2023-04-14T09:47:52.871Z,61.54
2023-04-14T09:48:52.863Z,65.72
2023-04-14T09:49:52.824Z,66.21
2023-04-14T09:50:52.832Z,68.79
2023-04-14T09:51:52.838Z,63.56
2023-04-14T09:52:52.834Z,65.78
2023-04-14T09:53:52.880Z,66.87
2023-04-14T09:54:52.807Z,67.11
2023-04-14T09:55:52.813Z,69.87
2023-04-14T09:56:52.778Z,68.13
2023-04-14T09:57:52.769Z,61.11
2023-04-14T09:58:52.791Z,64.46
2023-04-14T09:59:52.757Z,64.48
2023-04-14T10:00:52.773Z,67.86
2023-04-14T10:01:52.884Z,68.96
2023-04-14T10:02:52.914Z,68.63
2023-04-14T10:03:52.814Z,65.57
2023-04-14T10:04:52.752Z,66.73
2023-04-14T10:05:52.730Z,67.15
2023-04-14T10:06:52.723Z,68.45
2023-04-14T10:07:52.721Z,65.43
2023-04-14T10:08:52.686Z,68.11
2023-04-14T10:09:52.685Z,69.01
2023-04-14T10:10:52.752Z,68.98
2023-04-14T10:11:52.705Z,65.93
2023-04-14T10:12:52.668Z,65.64
2023-04-14T10:13:52.676Z,69.01
2023-04-14T10:14:52.694Z,69.02
2023-04-14T10:15:52.738Z,68.86
2023-04-14T10:16:52.647Z,64.09
2023-04-14T10:17:52.687Z,64.82
2023-04-14T10:18:52.627Z,69.40
2023-04-14T10:19:52.619Z,67.42
2023-04-14T10:20:52.616Z,61.07
2023-04-14T10:21:52.586Z,70.59
2023-04-14T10:22:52.619Z,67.39
2023-04-14T10:23:52.580Z,65.30
2023-04-14T10:24:52.579Z,68.59
2023-04-14T10:25:52.585Z,64.86
2023-04-14T10:26:52.580Z,67.88
2023-04-14T10:27:52.542Z,67.48
2023-04-14T10:28:52.624Z,64.54
2023-04-14T10:29:52.567Z,63.57
2023-04-14T10:30:52.577Z,62.46
2023-04-14T10:31:52.566Z,61.93
2023-04-14T10:32:52.678Z,68.38
2023-04-14T10:33:52.548Z,71.27
2023-04-14T10:34:52.513Z,70.07
2023-04-14T10:35:52.511Z,64.24
2023-04-14T10:36:53.465Z,66.63
2023-04-14T10:37:52.480Z,58.81
2023-04-14T10:38:52.494Z,67.95
2023-04-14T10:39:52.466Z,63.82
2023-04-14T10:40:52.446Z,64.81
2023-04-14T10:41:52.473Z,66.63
2023-04-14T10:42:52.436Z,63.13
2023-04-14T10:43:52.465Z,65.22
2023-04-14T10:44:52.424Z,65.64
2023-04-14T10:45:52.414Z,66.68
2023-04-14T10:46:52.485Z,71.41
2023-04-14T10:47:52.449Z,64.81
2023-04-14T10:48:52.405Z,65.74
2023-04-14T10:49:52.388Z,70.87
2023-04-14T10:50:52.368Z,67.69
2023-04-14T10:51:52.396Z,65.23
2023-04-14T10:52:52.428Z,58.09
2023-04-14T10:53:52.343Z,69.12
2023-04-14T10:54:52.349Z,67.51
2023-04-14T10:55:52.704Z,66.65
2023-04-14T10:56:52.329Z,65.93
2023-04-14T10:57:52.328Z,65.48
2023-04-14T10:58:52.342Z,64.36
2023-04-14T10:59:52.323Z,65.67
2023-04-14T11:00:53.308Z,65.49
2023-04-14T11:01:52.379Z,67.82
2023-04-14T11:02:52.367Z,69.80
2023-04-14T11:03:52.410Z,68.42
2023-04-14T11:04:52.265Z,67.77
2023-04-14T11:05:52.261Z,68.94
2023-04-14T11:06:52.317Z,67.22
2023-04-14T11:07:52.278Z,68.25
2023-04-14T11:08:52.236Z,67.99
2023-04-14T11:09:52.226Z,62.83
2023-04-14T11:10:52.225Z,66.88
2023-04-14T11:11:52.217Z,68.72
2023-04-14T11:12:52.210Z,62.95
2023-04-14T11:13:52.208Z,68.80
2023-04-14T11:14:52.232Z,62.04
2023-04-14T11:15:52.150Z,69.13
2023-04-14T11:17:02.902Z,62.92
2023-04-14T11:18:19.695Z,68.01
2023-04-14T11:18:52.153Z,63.90
2023-04-14T11:19:52.150Z,63.94
2023-04-14T11:20:52.174Z,68.99
2023-04-14T11:21:52.129Z,67.28
2023-04-14T11:22:52.120Z,59.64
2023-04-14T11:23:52.111Z,65.55
2023-04-14T11:24:52.096Z,68.82
2023-04-14T11:25:52.099Z,66.32
2023-04-14T11:26:52.105Z,70.75
2023-04-14T11:27:52.285Z,66.13
2023-04-14T11:28:52.051Z,65.23
2023-04-14T11:29:52.127Z,70.33
2023-04-14T11:30:52.758Z,68.64
2023-04-14T11:31:52.066Z,62.98
2023-04-14T11:32:52.253Z,66.37
2023-04-14T11:33:52.025Z,67.02
2023-04-14T11:34:52.081Z,64.33
2023-04-14T11:35:52.006Z,62.98
2023-04-14T11:36:52.006Z,61.65
2023-04-14T11:37:52.003Z,65.42
2023-04-14T11:38:51.998Z,70.54
2023-04-14T11:39:51.989Z,62.84
2023-04-14T11:40:52.000Z,67.72
2023-04-14T11:41:51.969Z,67.75
2023-04-14T11:42:51.959Z,64.44
2023-04-14T11:43:52.664Z,66.05
2023-04-14T11:44:51.927Z,64.24
2023-04-14T11:45:52.075Z,69.39
2023-04-14T11:46:51.919Z,66.12
2023-04-14T11:47:51.964Z,67.03
2023-04-14T11:48:51.939Z,68.61
2023-04-14T11:49:51.896Z,64.48
2023-04-14T11:50:51.904Z,70.58
2023-04-14T11:51:51.889Z,63.64
2023-04-14T11:52:51.892Z,66.44
2023-04-14T11:53:51.931Z,63.13
2023-04-14T11:54:51.935Z,67.90
2023-04-14T11:55:51.891Z,65.47
2023-04-14T11:56:51.870Z,66.58
2023-04-14T11:57:51.888Z,66.43
2023-04-14T11:58:51.864Z,69.75
2023-04-14T11:59:51.874Z,68.76
2023-04-14T12:00:53.626Z,62.81
2023-04-14T12:01:51.874Z,68.21
2023-04-14T12:02:52.036Z,70.38
2023-04-14T12:03:52.022Z,67.86
2023-04-14T12:04:51.975Z,69.34
2023-04-14T12:05:51.798Z,70.15
2023-04-14T12:06:53.182Z,65.43
2023-04-14T12:07:51.776Z,68.20
2023-04-14T12:08:51.794Z,69.14
2023-04-14T12:09:51.770Z,68.12
2023-04-14T12:10:52.152Z,66.37
2023-04-14T12:11:51.744Z,69.88
2023-04-14T12:12:51.748Z,66.87
2023-04-14T12:13:51.737Z,63.97
2023-04-14T12:14:51.739Z,64.98
2023-04-14T12:15:51.813Z,65.01
2023-04-14T12:16:52.389Z,68.95
2023-04-14T12:17:51.700Z,66.87
2023-04-14T12:18:51.698Z,68.38
2023-04-14T12:19:51.683Z,69.11
2023-04-14T12:20:51.705Z,70.63
2023-04-14T12:21:51.677Z,66.11
2023-04-14T12:22:51.666Z,63.49
2023-04-14T12:23:51.668Z,69.50
2023-04-14T12:24:51.657Z,67.83
2023-04-14T12:25:51.691Z,64.27
2023-04-14T12:26:51.680Z,66.79
2023-04-14T12:27:51.639Z,71.34
2023-04-14T12:28:52.003Z,68.36
2023-04-14T12:29:51.635Z,63.32
2023-04-14T12:30:51.639Z,70.86
2023-04-14T12:31:51.647Z,68.86
2023-04-14T12:32:51.661Z,70.35
2023-04-14T12:33:51.593Z,66.32
2023-04-14T12:34:51.616Z,67.75
2023-04-14T12:35:51.600Z,69.29
2023-04-14T12:36:51.623Z,66.14
2023-04-14T12:37:51.605Z,68.99
2023-04-14T12:38:51.527Z,67.08
2023-04-14T12:39:51.538Z,64.13
2023-04-14T12:40:51.541Z,68.60
2023-04-14T12:41:51.551Z,69.55
2023-04-14T12:42:51.539Z,68.52
2023-04-14T12:43:51.542Z,68.68
2023-04-14T12:44:52.210Z,66.99
2023-04-14T12:45:51.489Z,66.72
2023-04-14T12:46:51.499Z,69.02
2023-04-14T12:47:52.118Z,69.23
2023-04-14T12:48:51.473Z,69.83
2023-04-14T12:49:51.480Z,62.55
2023-04-14T12:50:51.968Z,70.05
2023-04-14T12:51:51.455Z,67.88
2023-04-14T12:52:51.454Z,69.45
2023-04-14T12:53:51.429Z,68.66
2023-04-14T12:54:51.411Z,67.67
2023-04-14T12:55:51.414Z,63.56
2023-04-14T12:56:51.411Z,68.99
2023-04-14T12:57:51.474Z,64.28
2023-04-14T12:58:51.478Z,66.76
2023-04-14T12:59:51.400Z,67.82
2023-04-14T13:00:51.431Z,66.53
2023-04-14T13:01:51.444Z,66.54
2023-04-14T13:02:52.198Z,56.47
2023-04-14T13:03:51.780Z,69.98
2023-04-14T13:04:51.872Z,69.21
2023-04-14T13:05:51.364Z,68.09
2023-04-14T13:06:51.374Z,68.29
2023-04-14T13:07:51.303Z,68.67
2023-04-14T13:08:51.331Z,68.03